Terminal Aerodrome Forecast
Issued by NWS Cleveland, OH

Home | Current Version | Previous Version | Text Only | Print | Product List | Glossary Off
Versions: 1 2 3 4 5 6 7 8 9 10 11 12 13 14 15 16 17 18 19 20 21 22 23 24 25

000
FTUS41 KCLE 221700
TAFMFD
TAF
KMFD 221730Z 2218/2318 22008KT P6SM SCT045
     FM222300 21006KT P6SM SCT200
     FM231000 25008KT P6SM VCSH BKN050 OVC100
     FM231400 29008KT P6SM VCSH BKN025 OVC050=

USA.gov is the U.S. government's official web portal to all federal, state and local government web resources and services.